sensor_id;sensor_type;location;lat;lon;timestamp;P1;durP1;ratioP1;P2;durP2;ratioP2
78382;SDS011;67668;52.294;4.692;2023-09-07T00:01:20;4.32;;;2.58;;
78382;SDS011;67668;52.294;4.692;2023-09-07T00:03:45;5.10;;;2.22;;
78382;SDS011;67668;52.294;4.692;2023-09-07T00:06:11;4.95;;;2.80;;
78382;SDS011;67668;52.294;4.692;2023-09-07T00:08:36;3.78;;;2.58;;
78382;SDS011;67668;52.294;4.692;2023-09-07T00:11:08;7.30;;;2.80;;
78382;SDS011;67668;52.294;4.692;2023-09-07T00:13:35;5.45;;;2.63;;
78382;SDS011;67668;52.294;4.692;2023-09-07T00:16:01;3.38;;;2.28;;
78382;SDS011;67668;52.294;4.692;2023-09-07T00:18:28;7.45;;;3.17;;
78382;SDS011;67668;52.294;4.692;2023-09-07T00:20:54;4.50;;;2.42;;
78382;SDS011;67668;52.294;4.692;2023-09-07T00:23:20;3.75;;;2.78;;
78382;SDS011;67668;52.294;4.692;2023-09-07T00:25:45;3.55;;;2.30;;
78382;SDS011;67668;52.294;4.692;2023-09-07T00:28:11;4.55;;;2.40;;
78382;SDS011;67668;52.294;4.692;2023-09-07T00:30:37;4.50;;;2.80;;
78382;SDS011;67668;52.294;4.692;2023-09-07T00:33:04;3.30;;;2.70;;
78382;SDS011;67668;52.294;4.692;2023-09-07T00:35:30;4.07;;;2.47;;
78382;SDS011;67668;52.294;4.692;2023-09-07T00:37:56;5.28;;;2.85;;
78382;SDS011;67668;52.294;4.692;2023-09-07T00:40:22;3.88;;;2.65;;
78382;SDS011;67668;52.294;4.692;2023-09-07T00:42:48;3.88;;;2.53;;
78382;SDS011;67668;52.294;4.692;2023-09-07T00:45:13;4.03;;;2.50;;
78382;SDS011;67668;52.294;4.692;2023-09-07T00:47:39;6.13;;;2.72;;
78382;SDS011;67668;52.294;4.692;2023-09-07T00:50:05;4.43;;;2.92;;
78382;SDS011;67668;52.294;4.692;2023-09-07T00:52:31;4.20;;;2.63;;
78382;SDS011;67668;52.294;4.692;2023-09-07T00:54:57;6.57;;;3.00;;
78382;SDS011;67668;52.294;4.692;2023-09-07T00:57:24;9.63;;;3.00;;
78382;SDS011;67668;52.294;4.692;2023-09-07T00:59:49;5.70;;;2.70;;
78382;SDS011;67668;52.294;4.692;2023-09-07T01:02:15;4.40;;;2.67;;
78382;SDS011;67668;52.294;4.692;2023-09-07T01:04:40;4.63;;;3.03;;
78382;SDS011;67668;52.294;4.692;2023-09-07T01:09:57;3.35;;;2.35;;
78382;SDS011;67668;52.294;4.692;2023-09-07T01:12:25;4.88;;;2.70;;
78382;SDS011;67668;52.294;4.692;2023-09-07T01:14:51;5.00;;;2.83;;
78382;SDS011;67668;52.294;4.692;2023-09-07T01:17:18;4.68;;;3.03;;
78382;SDS011;67668;52.294;4.692;2023-09-07T01:19:43;3.60;;;2.65;;
78382;SDS011;67668;52.294;4.692;2023-09-07T01:22:09;5.82;;;3.20;;
78382;SDS011;67668;52.294;4.692;2023-09-07T01:24:36;5.15;;;3.35;;
78382;SDS011;67668;52.294;4.692;2023-09-07T01:27:02;4.95;;;3.22;;
78382;SDS011;67668;52.294;4.692;2023-09-07T01:29:29;5.18;;;3.13;;
78382;SDS011;67668;52.294;4.692;2023-09-07T01:31:55;3.80;;;2.55;;
78382;SDS011;67668;52.294;4.692;2023-09-07T01:34:22;4.22;;;3.40;;
78382;SDS011;67668;52.294;4.692;2023-09-07T01:36:48;3.83;;;2.92;;
78382;SDS011;67668;52.294;4.692;2023-09-07T01:39:13;5.10;;;3.70;;
78382;SDS011;67668;52.294;4.692;2023-09-07T01:41:39;4.68;;;2.88;;
78382;SDS011;67668;52.294;4.692;2023-09-07T01:44:04;6.38;;;3.65;;
78382;SDS011;67668;52.294;4.692;2023-09-07T01:46:30;4.68;;;3.00;;
78382;SDS011;67668;52.294;4.692;2023-09-07T01:48:55;4.43;;;3.42;;
78382;SDS011;67668;52.294;4.692;2023-09-07T01:51:20;3.95;;;2.78;;
78382;SDS011;67668;52.294;4.692;2023-09-07T01:53:49;6.87;;;3.30;;
78382;SDS011;67668;52.294;4.692;2023-09-07T01:56:17;5.38;;;3.80;;
78382;SDS011;67668;52.294;4.692;2023-09-07T01:58:42;6.47;;;3.85;;
78382;SDS011;67668;52.294;4.692;2023-09-07T02:01:19;6.82;;;3.67;;
78382;SDS011;67668;52.294;4.692;2023-09-07T02:03:45;5.00;;;3.60;;
78382;SDS011;67668;52.294;4.692;2023-09-07T02:06:11;5.35;;;3.90;;
78382;SDS011;67668;52.294;4.692;2023-09-07T02:08:36;4.57;;;3.15;;
78382;SDS011;67668;52.294;4.692;2023-09-07T02:11:01;4.15;;;2.97;;
78382;SDS011;67668;52.294;4.692;2023-09-07T02:13:27;5.25;;;3.22;;
78382;SDS011;67668;52.294;4.692;2023-09-07T02:15:53;5.32;;;4.18;;
78382;SDS011;67668;52.294;4.692;2023-09-07T02:18:18;4.88;;;3.50;;
78382;SDS011;67668;52.294;4.692;2023-09-07T02:20:45;5.28;;;3.90;;
78382;SDS011;67668;52.294;4.692;2023-09-07T02:23:10;9.00;;;4.00;;
78382;SDS011;67668;52.294;4.692;2023-09-07T02:25:35;5.25;;;3.33;;
78382;SDS011;67668;52.294;4.692;2023-09-07T02:28:01;9.13;;;4.15;;
78382;SDS011;67668;52.294;4.692;2023-09-07T02:30:26;5.18;;;3.58;;
78382;SDS011;67668;52.294;4.692;2023-09-07T02:32:52;6.90;;;4.05;;
78382;SDS011;67668;52.294;4.692;2023-09-07T02:35:18;9.07;;;4.03;;
78382;SDS011;67668;52.294;4.692;2023-09-07T02:37:43;5.03;;;3.22;;
78382;SDS011;67668;52.294;4.692;2023-09-07T02:40:09;5.30;;;3.73;;
78382;SDS011;67668;52.294;4.692;2023-09-07T02:42:34;6.78;;;4.00;;
78382;SDS011;67668;52.294;4.692;2023-09-07T02:45:00;6.70;;;4.20;;
78382;SDS011;67668;52.294;4.692;2023-09-07T02:47:25;6.18;;;4.38;;
78382;SDS011;67668;52.294;4.692;2023-09-07T02:49:51;7.57;;;4.00;;
78382;SDS011;67668;52.294;4.692;2023-09-07T02:52:16;5.75;;;3.45;;
78382;SDS011;67668;52.294;4.692;2023-09-07T02:54:41;6.38;;;3.67;;
78382;SDS011;67668;52.294;4.692;2023-09-07T02:57:07;7.17;;;3.47;;
78382;SDS011;67668;52.294;4.692;2023-09-07T02:59:32;5.25;;;3.80;;
78382;SDS011;67668;52.294;4.692;2023-09-07T03:01:58;5.22;;;3.80;;
78382;SDS011;67668;52.294;4.692;2023-09-07T03:04:23;5.53;;;3.58;;
78382;SDS011;67668;52.294;4.692;2023-09-07T03:06:49;8.00;;;4.83;;
78382;SDS011;67668;52.294;4.692;2023-09-07T03:09:14;5.70;;;3.83;;
78382;SDS011;67668;52.294;4.692;2023-09-07T03:11:39;5.28;;;3.90;;
78382;SDS011;67668;52.294;4.692;2023-09-07T03:14:05;6.57;;;4.30;;
78382;SDS011;67668;52.294;4.692;2023-09-07T03:16:30;6.10;;;3.70;;
78382;SDS011;67668;52.294;4.692;2023-09-07T03:18:56;5.22;;;3.42;;
78382;SDS011;67668;52.294;4.692;2023-09-07T03:21:21;6.67;;;3.83;;
78382;SDS011;67668;52.294;4.692;2023-09-07T03:23:50;5.47;;;4.13;;
78382;SDS011;67668;52.294;4.692;2023-09-07T03:26:17;5.55;;;3.90;;
78382;SDS011;67668;52.294;4.692;2023-09-07T03:28:43;7.30;;;4.50;;
78382;SDS011;67668;52.294;4.692;2023-09-07T03:31:08;6.45;;;4.22;;
78382;SDS011;67668;52.294;4.692;2023-09-07T03:33:33;6.05;;;3.58;;
78382;SDS011;67668;52.294;4.692;2023-09-07T03:35:59;6.53;;;4.47;;
78382;SDS011;67668;52.294;4.692;2023-09-07T03:38:25;6.25;;;3.97;;
78382;SDS011;67668;52.294;4.692;2023-09-07T03:40:50;6.17;;;3.97;;
78382;SDS011;67668;52.294;4.692;2023-09-07T03:43:15;6.90;;;4.57;;
78382;SDS011;67668;52.294;4.692;2023-09-07T03:45:41;7.95;;;3.70;;
78382;SDS011;67668;52.294;4.692;2023-09-07T03:48:06;9.03;;;5.00;;
78382;SDS011;67668;52.294;4.692;2023-09-07T03:50:32;6.55;;;4.32;;
78382;SDS011;67668;52.294;4.692;2023-09-07T03:52:57;6.57;;;4.77;;
78382;SDS011;67668;52.294;4.692;2023-09-07T03:55:23;6.28;;;4.38;;
78382;SDS011;67668;52.294;4.692;2023-09-07T03:57:49;6.13;;;4.35;;
78382;SDS011;67668;52.294;4.692;2023-09-07T04:00:15;5.97;;;4.93;;
78382;SDS011;67668;52.294;4.692;2023-09-07T04:02:41;6.32;;;4.30;;
78382;SDS011;67668;52.294;4.692;2023-09-07T04:05:06;10.35;;;4.70;;
78382;SDS011;67668;52.294;4.692;2023-09-07T04:07:32;5.38;;;4.18;;
78382;SDS011;67668;52.294;4.692;2023-09-07T04:09:58;7.50;;;4.78;;
78382;SDS011;67668;52.294;4.692;2023-09-07T04:12:23;6.00;;;4.93;;
78382;SDS011;67668;52.294;4.692;2023-09-07T04:14:49;7.97;;;4.78;;
78382;SDS011;67668;52.294;4.692;2023-09-07T04:17:15;8.30;;;4.75;;
78382;SDS011;67668;52.294;4.692;2023-09-07T04:19:40;6.97;;;5.13;;
78382;SDS011;67668;52.294;4.692;2023-09-07T04:22:05;7.00;;;4.60;;
78382;SDS011;67668;52.294;4.692;2023-09-07T04:24:31;5.93;;;4.30;;
78382;SDS011;67668;52.294;4.692;2023-09-07T04:27:00;7.28;;;5.18;;
78382;SDS011;67668;52.294;4.692;2023-09-07T04:29:26;8.32;;;4.70;;
78382;SDS011;67668;52.294;4.692;2023-09-07T04:31:52;10.60;;;5.43;;
78382;SDS011;67668;52.294;4.692;2023-09-07T04:34:18;7.15;;;5.00;;
78382;SDS011;67668;52.294;4.692;2023-09-07T04:36:46;6.47;;;4.38;;
78382;SDS011;67668;52.294;4.692;2023-09-07T04:39:11;7.97;;;4.80;;
78382;SDS011;67668;52.294;4.692;2023-09-07T04:41:39;9.88;;;5.03;;
78382;SDS011;67668;52.294;4.692;2023-09-07T04:44:04;8.80;;;5.22;;
78382;SDS011;67668;52.294;4.692;2023-09-07T04:46:30;10.75;;;5.07;;
78382;SDS011;67668;52.294;4.692;2023-09-07T04:48:55;6.50;;;4.70;;
78382;SDS011;67668;52.294;4.692;2023-09-07T04:51:21;8.65;;;5.07;;
78382;SDS011;67668;52.294;4.692;2023-09-07T04:53:47;9.20;;;4.47;;
78382;SDS011;67668;52.294;4.692;2023-09-07T04:56:12;9.65;;;4.78;;
78382;SDS011;67668;52.294;4.692;2023-09-07T04:58:38;8.65;;;4.93;;
78382;SDS011;67668;52.294;4.692;2023-09-07T05:01:08;8.07;;;5.45;;
78382;SDS011;67668;52.294;4.692;2023-09-07T05:03:35;8.38;;;4.63;;
78382;SDS011;67668;52.294;4.692;2023-09-07T05:06:01;6.10;;;4.28;;
78382;SDS011;67668;52.294;4.692;2023-09-07T05:08:28;7.93;;;4.55;;
78382;SDS011;67668;52.294;4.692;2023-09-07T05:10:58;8.18;;;4.68;;
78382;SDS011;67668;52.294;4.692;2023-09-07T05:13:24;8.00;;;4.30;;
78382;SDS011;67668;52.294;4.692;2023-09-07T05:15:51;7.40;;;4.32;;
78382;SDS011;67668;52.294;4.692;2023-09-07T05:18:22;7.03;;;4.65;;
78382;SDS011;67668;52.294;4.692;2023-09-07T05:20:47;7.43;;;4.47;;
78382;SDS011;67668;52.294;4.692;2023-09-07T05:23:20;5.57;;;3.88;;
78382;SDS011;67668;52.294;4.692;2023-09-07T05:25:49;6.10;;;4.13;;
78382;SDS011;67668;52.294;4.692;2023-09-07T05:28:17;7.70;;;4.43;;
78382;SDS011;67668;52.294;4.692;2023-09-07T05:30:43;8.13;;;4.65;;
78382;SDS011;67668;52.294;4.692;2023-09-07T05:33:09;8.93;;;3.90;;
78382;SDS011;67668;52.294;4.692;2023-09-07T05:35:35;7.70;;;5.07;;
78382;SDS011;67668;52.294;4.692;2023-09-07T05:38:02;10.10;;;4.60;;
78382;SDS011;67668;52.294;4.692;2023-09-07T05:40:28;7.50;;;4.95;;
78382;SDS011;67668;52.294;4.692;2023-09-07T05:42:53;8.02;;;4.45;;
78382;SDS011;67668;52.294;4.692;2023-09-07T05:45:19;6.30;;;4.77;;
78382;SDS011;67668;52.294;4.692;2023-09-07T05:47:45;10.52;;;4.72;;
78382;SDS011;67668;52.294;4.692;2023-09-07T05:50:10;8.13;;;4.90;;
78382;SDS011;67668;52.294;4.692;2023-09-07T05:52:36;5.68;;;4.22;;
78382;SDS011;67668;52.294;4.692;2023-09-07T05:55:01;5.15;;;3.72;;
78382;SDS011;67668;52.294;4.692;2023-09-07T05:57:27;8.25;;;5.03;;
78382;SDS011;67668;52.294;4.692;2023-09-07T05:59:53;5.88;;;4.47;;
78382;SDS011;67668;52.294;4.692;2023-09-07T06:02:18;7.33;;;4.77;;
78382;SDS011;67668;52.294;4.692;2023-09-07T06:04:43;8.23;;;4.78;;
78382;SDS011;67668;52.294;4.692;2023-09-07T06:07:09;7.57;;;4.50;;
78382;SDS011;67668;52.294;4.692;2023-09-07T06:09:34;8.87;;;5.07;;
78382;SDS011;67668;52.294;4.692;2023-09-07T06:12:00;9.32;;;4.82;;
78382;SDS011;67668;52.294;4.692;2023-09-07T06:14:28;8.07;;;4.60;;
78382;SDS011;67668;52.294;4.692;2023-09-07T06:16:53;7.80;;;5.17;;
78382;SDS011;67668;52.294;4.692;2023-09-07T06:19:19;8.35;;;5.10;;
78382;SDS011;67668;52.294;4.692;2023-09-07T06:21:45;8.30;;;5.88;;
78382;SDS011;67668;52.294;4.692;2023-09-07T06:24:10;11.05;;;5.93;;
78382;SDS011;67668;52.294;4.692;2023-09-07T06:26:36;8.68;;;5.80;;
78382;SDS011;67668;52.294;4.692;2023-09-07T06:29:01;11.27;;;5.80;;
78382;SDS011;67668;52.294;4.692;2023-09-07T06:31:26;9.20;;;5.28;;
78382;SDS011;67668;52.294;4.692;2023-09-07T06:33:52;7.60;;;5.28;;
78382;SDS011;67668;52.294;4.692;2023-09-07T06:36:17;8.82;;;5.97;;
78382;SDS011;67668;52.294;4.692;2023-09-07T06:38:43;11.98;;;5.07;;
78382;SDS011;67668;52.294;4.692;2023-09-07T06:41:08;9.40;;;5.20;;
78382;SDS011;67668;52.294;4.692;2023-09-07T06:43:34;8.05;;;5.53;;
78382;SDS011;67668;52.294;4.692;2023-09-07T06:46:05;11.07;;;6.20;;
78382;SDS011;67668;52.294;4.692;2023-09-07T06:48:32;7.72;;;5.38;;
78382;SDS011;67668;52.294;4.692;2023-09-07T06:51:01;7.77;;;4.90;;
78382;SDS011;67668;52.294;4.692;2023-09-07T06:53:30;10.23;;;4.60;;
78382;SDS011;67668;52.294;4.692;2023-09-07T06:55:59;9.20;;;5.07;;
78382;SDS011;67668;52.294;4.692;2023-09-07T06:58:25;9.10;;;4.60;;
78382;SDS011;67668;52.294;4.692;2023-09-07T07:00:51;6.60;;;4.78;;
78382;SDS011;67668;52.294;4.692;2023-09-07T07:03:16;8.18;;;4.70;;
78382;SDS011;67668;52.294;4.692;2023-09-07T07:05:41;7.95;;;4.47;;
78382;SDS011;67668;52.294;4.692;2023-09-07T07:08:09;5.93;;;3.97;;
78382;SDS011;67668;52.294;4.692;2023-09-07T07:10:34;7.05;;;4.55;;
78382;SDS011;67668;52.294;4.692;2023-09-07T07:13:00;6.13;;;4.93;;
78382;SDS011;67668;52.294;4.692;2023-09-07T07:15:25;7.93;;;4.95;;
78382;SDS011;67668;52.294;4.692;2023-09-07T07:17:51;10.32;;;4.38;;
78382;SDS011;67668;52.294;4.692;2023-09-07T07:20:16;6.07;;;3.92;;
78382;SDS011;67668;52.294;4.692;2023-09-07T07:22:42;7.65;;;3.72;;
78382;SDS011;67668;52.294;4.692;2023-09-07T07:25:07;6.00;;;4.10;;
78382;SDS011;67668;52.294;4.692;2023-09-07T07:27:33;7.00;;;3.72;;
78382;SDS011;67668;52.294;4.692;2023-09-07T07:29:59;6.80;;;4.03;;
78382;SDS011;67668;52.294;4.692;2023-09-07T07:32:25;9.10;;;3.47;;
78382;SDS011;67668;52.294;4.692;2023-09-07T07:34:50;6.85;;;4.85;;
78382;SDS011;67668;52.294;4.692;2023-09-07T07:37:16;6.07;;;3.23;;
78382;SDS011;67668;52.294;4.692;2023-09-07T07:39:41;5.93;;;3.42;;
78382;SDS011;67668;52.294;4.692;2023-09-07T07:42:06;5.32;;;3.45;;
78382;SDS011;67668;52.294;4.692;2023-09-07T07:44:32;8.45;;;3.30;;
78382;SDS011;67668;52.294;4.692;2023-09-07T07:46:57;4.93;;;3.40;;
78382;SDS011;67668;52.294;4.692;2023-09-07T07:49:23;5.97;;;3.30;;
78382;SDS011;67668;52.294;4.692;2023-09-07T07:51:48;4.63;;;3.28;;
78382;SDS011;67668;52.294;4.692;2023-09-07T07:54:13;6.43;;;4.03;;
78382;SDS011;67668;52.294;4.692;2023-09-07T07:56:41;7.90;;;3.33;;
78382;SDS011;67668;52.294;4.692;2023-09-07T07:59:06;5.40;;;3.75;;
78382;SDS011;67668;52.294;4.692;2023-09-07T08:01:31;6.43;;;3.80;;
78382;SDS011;67668;52.294;4.692;2023-09-07T08:03:57;5.50;;;3.30;;
78382;SDS011;67668;52.294;4.692;2023-09-07T08:06:22;6.90;;;3.85;;
78382;SDS011;67668;52.294;4.692;2023-09-07T08:08:48;6.28;;;3.83;;
78382;SDS011;67668;52.294;4.692;2023-09-07T08:11:13;5.47;;;3.13;;
78382;SDS011;67668;52.294;4.692;2023-09-07T08:13:39;5.93;;;3.33;;
78382;SDS011;67668;52.294;4.692;2023-09-07T08:16:05;5.65;;;3.53;;
78382;SDS011;67668;52.294;4.692;2023-09-07T08:18:34;5.38;;;3.22;;
78382;SDS011;67668;52.294;4.692;2023-09-07T08:20:59;5.22;;;3.50;;
78382;SDS011;67668;52.294;4.692;2023-09-07T08:23:25;4.38;;;2.97;;
78382;SDS011;67668;52.294;4.692;2023-09-07T08:25:51;5.10;;;3.30;;
78382;SDS011;67668;52.294;4.692;2023-09-07T08:28:23;6.00;;;2.90;;
78382;SDS011;67668;52.294;4.692;2023-09-07T08:30:50;6.85;;;2.65;;
78382;SDS011;67668;52.294;4.692;2023-09-07T08:33:19;5.03;;;2.85;;
78382;SDS011;67668;52.294;4.692;2023-09-07T08:35:51;3.78;;;2.45;;
78382;SDS011;67668;52.294;4.692;2023-09-07T08:38:17;4.30;;;3.05;;
78382;SDS011;67668;52.294;4.692;2023-09-07T08:40:43;4.40;;;3.03;;
78382;SDS011;67668;52.294;4.692;2023-09-07T08:43:11;5.05;;;2.72;;
78382;SDS011;67668;52.294;4.692;2023-09-07T08:45:41;4.35;;;2.63;;
78382;SDS011;67668;52.294;4.692;2023-09-07T08:48:11;5.70;;;2.65;;
78382;SDS011;67668;52.294;4.692;2023-09-07T08:50:38;5.47;;;3.25;;
78382;SDS011;67668;52.294;4.692;2023-09-07T08:53:05;5.95;;;2.85;;
78382;SDS011;67668;52.294;4.692;2023-09-07T08:55:32;7.10;;;2.92;;
78382;SDS011;67668;52.294;4.692;2023-09-07T08:57:58;4.93;;;2.83;;
78382;SDS011;67668;52.294;4.692;2023-09-07T09:00:24;6.03;;;3.22;;
78382;SDS011;67668;52.294;4.692;2023-09-07T09:02:49;3.88;;;2.45;;
78382;SDS011;67668;52.294;4.692;2023-09-07T09:05:15;4.03;;;2.63;;
78382;SDS011;67668;52.294;4.692;2023-09-07T09:07:40;4.88;;;2.92;;
78382;SDS011;67668;52.294;4.692;2023-09-07T09:10:06;5.80;;;3.10;;
78382;SDS011;67668;52.294;4.692;2023-09-07T09:12:33;9.48;;;2.92;;
78382;SDS011;67668;52.294;4.692;2023-09-07T09:14:59;3.13;;;2.25;;
78382;SDS011;67668;52.294;4.692;2023-09-07T09:17:26;3.03;;;2.53;;
78382;SDS011;67668;52.294;4.692;2023-09-07T09:19:52;6.70;;;2.63;;
78382;SDS011;67668;52.294;4.692;2023-09-07T09:22:17;4.47;;;2.80;;
78382;SDS011;67668;52.294;4.692;2023-09-07T09:24:44;5.68;;;3.25;;
78382;SDS011;67668;52.294;4.692;2023-09-07T09:27:16;4.07;;;2.65;;
78382;SDS011;67668;52.294;4.692;2023-09-07T09:29:42;5.07;;;2.60;;
78382;SDS011;67668;52.294;4.692;2023-09-07T09:32:07;6.27;;;2.73;;
78382;SDS011;67668;52.294;4.692;2023-09-07T09:34:33;4.95;;;2.70;;
78382;SDS011;67668;52.294;4.692;2023-09-07T09:37:01;4.90;;;2.60;;
78382;SDS011;67668;52.294;4.692;2023-09-07T09:39:27;4.30;;;2.58;;
78382;SDS011;67668;52.294;4.692;2023-09-07T09:41:52;6.40;;;2.67;;
78382;SDS011;67668;52.294;4.692;2023-09-07T09:44:19;5.72;;;2.72;;
78382;SDS011;67668;52.294;4.692;2023-09-07T09:46:46;5.05;;;2.45;;
78382;SDS011;67668;52.294;4.692;2023-09-07T09:49:12;5.00;;;2.95;;
78382;SDS011;67668;52.294;4.692;2023-09-07T09:51:40;4.50;;;2.40;;
78382;SDS011;67668;52.294;4.692;2023-09-07T09:54:06;5.78;;;2.50;;
78382;SDS011;67668;52.294;4.692;2023-09-07T09:56:34;6.80;;;2.38;;
78382;SDS011;67668;52.294;4.692;2023-09-07T09:58:59;4.88;;;3.28;;
78382;SDS011;67668;52.294;4.692;2023-09-07T10:01:25;4.35;;;2.63;;
78382;SDS011;67668;52.294;4.692;2023-09-07T10:03:50;4.60;;;2.63;;
78382;SDS011;67668;52.294;4.692;2023-09-07T10:06:19;5.57;;;2.60;;
78382;SDS011;67668;52.294;4.692;2023-09-07T10:11:32;2.78;;;2.33;;
78382;SDS011;67668;52.294;4.692;2023-09-07T10:13:59;4.07;;;2.45;;
78382;SDS011;67668;52.294;4.692;2023-09-07T10:16:26;4.97;;;2.45;;
78382;SDS011;67668;52.294;4.692;2023-09-07T10:18:54;4.90;;;2.85;;
78382;SDS011;67668;52.294;4.692;2023-09-07T10:21:20;4.82;;;2.55;;
78382;SDS011;67668;52.294;4.692;2023-09-07T10:23:50;5.32;;;3.13;;
78382;SDS011;67668;52.294;4.692;2023-09-07T10:26:18;4.47;;;2.50;;
78382;SDS011;67668;52.294;4.692;2023-09-07T10:28:46;4.20;;;2.90;;
78382;SDS011;67668;52.294;4.692;2023-09-07T10:31:19;3.78;;;2.30;;
78382;SDS011;67668;52.294;4.692;2023-09-07T10:33:45;6.28;;;2.45;;
78382;SDS011;67668;52.294;4.692;2023-09-07T10:36:24;4.38;;;2.65;;
78382;SDS011;67668;52.294;4.692;2023-09-07T10:38:51;4.97;;;2.30;;
78382;SDS011;67668;52.294;4.692;2023-09-07T10:41:20;3.97;;;2.20;;
78382;SDS011;67668;52.294;4.692;2023-09-07T10:43:49;4.80;;;2.30;;
78382;SDS011;67668;52.294;4.692;2023-09-07T10:48:49;3.35;;;2.53;;
78382;SDS011;67668;52.294;4.692;2023-09-07T10:51:16;3.72;;;2.42;;
78382;SDS011;67668;52.294;4.692;2023-09-07T10:53:42;3.78;;;2.75;;
78382;SDS011;67668;52.294;4.692;2023-09-07T10:56:08;4.70;;;2.30;;
78382;SDS011;67668;52.294;4.692;2023-09-07T10:58:34;4.30;;;2.03;;
78382;SDS011;67668;52.294;4.692;2023-09-07T11:01:03;5.85;;;3.15;;
78382;SDS011;67668;52.294;4.692;2023-09-07T11:03:29;4.50;;;2.67;;
78382;SDS011;67668;52.294;4.692;2023-09-07T11:08:35;3.90;;;2.15;;
78382;SDS011;67668;52.294;4.692;2023-09-07T11:11:04;7.13;;;2.85;;
78382;SDS011;67668;52.294;4.692;2023-09-07T11:13:30;5.32;;;2.45;;
78382;SDS011;67668;52.294;4.692;2023-09-07T11:15:56;3.78;;;2.65;;
78382;SDS011;67668;52.294;4.692;2023-09-07T11:18:23;4.82;;;2.70;;
78382;SDS011;67668;52.294;4.692;2023-09-07T11:20:50;4.53;;;2.75;;
78382;SDS011;67668;52.294;4.692;2023-09-07T11:23:17;4.00;;;2.38;;
78382;SDS011;67668;52.294;4.692;2023-09-07T11:25:43;4.57;;;2.45;;
78382;SDS011;67668;52.294;4.692;2023-09-07T11:28:08;5.40;;;2.35;;
78382;SDS011;67668;52.294;4.692;2023-09-07T11:30:35;4.72;;;2.78;;
78382;SDS011;67668;52.294;4.692;2023-09-07T11:33:07;5.32;;;3.05;;
78382;SDS011;67668;52.294;4.692;2023-09-07T11:35:33;2.20;;;1.90;;
78382;SDS011;67668;52.294;4.692;2023-09-07T11:38:02;3.30;;;2.60;;
78382;SDS011;67668;52.294;4.692;2023-09-07T11:40:30;4.22;;;2.20;;
78382;SDS011;67668;52.294;4.692;2023-09-07T11:42:55;3.85;;;2.72;;
78382;SDS011;67668;52.294;4.692;2023-09-07T11:45:21;3.53;;;2.00;;
78382;SDS011;67668;52.294;4.692;2023-09-07T11:47:46;5.63;;;2.80;;
78382;SDS011;67668;52.294;4.692;2023-09-07T11:50:12;4.43;;;2.90;;
78382;SDS011;67668;52.294;4.692;2023-09-07T11:52:37;4.70;;;2.60;;
78382;SDS011;67668;52.294;4.692;2023-09-07T11:55:03;4.53;;;2.17;;
78382;SDS011;67668;52.294;4.692;2023-09-07T11:57:29;3.72;;;2.17;;
78382;SDS011;67668;52.294;4.692;2023-09-07T11:59:55;5.95;;;2.33;;
78382;SDS011;67668;52.294;4.692;2023-09-07T12:02:20;3.08;;;2.47;;
78382;SDS011;67668;52.294;4.692;2023-09-07T12:04:46;2.53;;;2.33;;
78382;SDS011;67668;52.294;4.692;2023-09-07T12:07:13;3.70;;;2.05;;
78382;SDS011;67668;52.294;4.692;2023-09-07T12:09:40;4.78;;;2.50;;
78382;SDS011;67668;52.294;4.692;2023-09-07T12:12:06;4.00;;;2.63;;
78382;SDS011;67668;52.294;4.692;2023-09-07T12:14:31;2.58;;;2.13;;
78382;SDS011;67668;52.294;4.692;2023-09-07T12:16:57;5.00;;;2.80;;
78382;SDS011;67668;52.294;4.692;2023-09-07T12:19:22;6.05;;;2.70;;
78382;SDS011;67668;52.294;4.692;2023-09-07T12:21:48;4.85;;;2.33;;
78382;SDS011;67668;52.294;4.692;2023-09-07T12:24:13;4.90;;;2.42;;
78382;SDS011;67668;52.294;4.692;2023-09-07T12:26:39;2.80;;;2.45;;
78382;SDS011;67668;52.294;4.692;2023-09-07T12:29:05;6.35;;;2.78;;
78382;SDS011;67668;52.294;4.692;2023-09-07T12:31:32;3.58;;;2.25;;
78382;SDS011;67668;52.294;4.692;2023-09-07T12:33:58;4.70;;;2.78;;
78382;SDS011;67668;52.294;4.692;2023-09-07T12:36:23;3.33;;;2.72;;
78382;SDS011;67668;52.294;4.692;2023-09-07T12:38:49;4.45;;;2.42;;
78382;SDS011;67668;52.294;4.692;2023-09-07T12:41:14;4.78;;;2.65;;
78382;SDS011;67668;52.294;4.692;2023-09-07T12:43:40;4.03;;;2.45;;
78382;SDS011;67668;52.294;4.692;2023-09-07T12:46:07;6.63;;;2.95;;
78382;SDS011;67668;52.294;4.692;2023-09-07T12:48:33;3.03;;;2.15;;
78382;SDS011;67668;52.294;4.692;2023-09-07T12:50:58;5.82;;;2.70;;
78382;SDS011;67668;52.294;4.692;2023-09-07T12:53:24;3.30;;;2.37;;
78382;SDS011;67668;52.294;4.692;2023-09-07T12:55:53;3.83;;;2.20;;
78382;SDS011;67668;52.294;4.692;2023-09-07T12:58:18;5.05;;;2.55;;
78382;SDS011;67668;52.294;4.692;2023-09-07T13:00:44;6.32;;;2.63;;
78382;SDS011;67668;52.294;4.692;2023-09-07T13:03:09;3.83;;;2.40;;
78382;SDS011;67668;52.294;4.692;2023-09-07T13:05:36;7.45;;;2.55;;
78382;SDS011;67668;52.294;4.692;2023-09-07T13:08:01;3.50;;;2.63;;
78382;SDS011;67668;52.294;4.692;2023-09-07T13:10:29;5.65;;;2.83;;
78382;SDS011;67668;52.294;4.692;2023-09-07T13:12:54;5.05;;;2.45;;
78382;SDS011;67668;52.294;4.692;2023-09-07T13:15:20;5.28;;;2.75;;
78382;SDS011;67668;52.294;4.692;2023-09-07T13:17:45;6.53;;;2.50;;
78382;SDS011;67668;52.294;4.692;2023-09-07T13:20:11;3.55;;;2.33;;
78382;SDS011;67668;52.294;4.692;2023-09-07T13:22:37;3.33;;;2.45;;
78382;SDS011;67668;52.294;4.692;2023-09-07T13:25:03;4.70;;;2.85;;
78382;SDS011;67668;52.294;4.692;2023-09-07T13:27:30;3.05;;;2.53;;
78382;SDS011;67668;52.294;4.692;2023-09-07T13:29:55;4.47;;;2.55;;
78382;SDS011;67668;52.294;4.692;2023-09-07T13:32:22;4.07;;;2.22;;
78382;SDS011;67668;52.294;4.692;2023-09-07T13:34:49;5.57;;;2.75;;
78382;SDS011;67668;52.294;4.692;2023-09-07T13:37:14;4.65;;;2.35;;
78382;SDS011;67668;52.294;4.692;2023-09-07T13:39:40;3.70;;;2.45;;
78382;SDS011;67668;52.294;4.692;2023-09-07T13:42:05;4.50;;;2.92;;
78382;SDS011;67668;52.294;4.692;2023-09-07T13:44:30;3.33;;;2.53;;
78382;SDS011;67668;52.294;4.692;2023-09-07T13:46:56;4.40;;;2.63;;
78382;SDS011;67668;52.294;4.692;2023-09-07T13:49:21;3.90;;;2.40;;
78382;SDS011;67668;52.294;4.692;2023-09-07T13:51:47;4.50;;;2.38;;
78382;SDS011;67668;52.294;4.692;2023-09-07T13:54:12;4.27;;;2.90;;
78382;SDS011;67668;52.294;4.692;2023-09-07T13:56:37;5.05;;;3.30;;
78382;SDS011;67668;52.294;4.692;2023-09-07T13:59:06;5.43;;;2.72;;
78382;SDS011;67668;52.294;4.692;2023-09-07T14:01:31;5.13;;;2.78;;
78382;SDS011;67668;52.294;4.692;2023-09-07T14:03:57;5.18;;;2.50;;
78382;SDS011;67668;52.294;4.692;2023-09-07T14:06:22;4.82;;;2.60;;
78382;SDS011;67668;52.294;4.692;2023-09-07T14:08:49;7.05;;;2.30;;
78382;SDS011;67668;52.294;4.692;2023-09-07T14:11:16;3.75;;;2.17;;
78382;SDS011;67668;52.294;4.692;2023-09-07T14:13:42;3.03;;;2.30;;
78382;SDS011;67668;52.294;4.692;2023-09-07T14:16:07;4.87;;;2.80;;
78382;SDS011;67668;52.294;4.692;2023-09-07T14:18:35;5.00;;;2.22;;
78382;SDS011;67668;52.294;4.692;2023-09-07T14:21:01;10.02;;;2.53;;
78382;SDS011;67668;52.294;4.692;2023-09-07T14:23:26;4.90;;;2.72;;
78382;SDS011;67668;52.294;4.692;2023-09-07T14:25:53;4.30;;;3.10;;
78382;SDS011;67668;52.294;4.692;2023-09-07T14:28:19;4.25;;;2.72;;
78382;SDS011;67668;52.294;4.692;2023-09-07T14:30:44;4.85;;;2.58;;
78382;SDS011;67668;52.294;4.692;2023-09-07T14:33:10;5.57;;;2.78;;
78382;SDS011;67668;52.294;4.692;2023-09-07T14:35:35;3.92;;;2.15;;
78382;SDS011;67668;52.294;4.692;2023-09-07T14:38:01;5.40;;;2.58;;
78382;SDS011;67668;52.294;4.692;2023-09-07T14:40:27;4.55;;;2.78;;
78382;SDS011;67668;52.294;4.692;2023-09-07T14:42:53;2.75;;;2.28;;
78382;SDS011;67668;52.294;4.692;2023-09-07T14:45:18;4.78;;;2.70;;
78382;SDS011;67668;52.294;4.692;2023-09-07T14:47:44;4.07;;;2.45;;
78382;SDS011;67668;52.294;4.692;2023-09-07T14:50:10;4.90;;;2.30;;
78382;SDS011;67668;52.294;4.692;2023-09-07T14:52:35;4.40;;;2.20;;